TimeMDT,TemperatureF,Dew PointF,Humidity,Sea Level PressureIn,VisibilityMPH,Wind Direction,Wind SpeedMPH,Gust SpeedMPH,PrecipitationIn,Events,Conditions,WindDirDegrees,DateUTC
12:15 AM,37.4,10.4,33,30.15,10.0,SW,9.2,-,N/A,,Clear,230,2013-03-11 06:15:00
12:35 AM,35.6,10.4,35,30.14,10.0,WSW,9.2,-,N/A,,Clear,250,2013-03-11 06:35:00
1:15 AM,35.6,10.4,35,30.14,10.0,West,8.1,-,N/A,,Clear,280,2013-03-11 07:15:00
1:35 AM,35.6,12.2,38,30.13,10.0,West,9.2,-,N/A,,Clear,280,2013-03-11 07:35:00
1:55 AM,33.8,12.2,41,30.13,10.0,West,6.9,-,N/A,,Clear,260,2013-03-11 07:55:00
2:15 AM,35.6,14.0,41,30.12,10.0,WSW,4.6,-,N/A,,Clear,240,2013-03-11 08:15:00
2:35 AM,37.4,14.0,38,30.12,10.0,Calm,Calm,-,N/A,,Clear,0,2013-03-11 08:35:00
2:55 AM,37.4,14.0,38,30.11,10.0,SSW,3.5,-,N/A,,Clear,210,2013-03-11 08:55:00
3:15 AM,33.8,12.2,41,30.11,10.0,Calm,Calm,-,N/A,,Clear,0,2013-03-11 09:15:00
3:35 AM,32.0,10.4,41,30.12,10.0,Calm,Calm,-,N/A,,Clear,0,2013-03-11 09:35:00
3:55 AM,32.0,10.4,41,30.12,10.0,North,3.5,-,N/A,,Clear,360,2013-03-11 09:55:00
4:15 AM,32.0,10.4,41,30.12,10.0,Calm,Calm,-,N/A,,Clear,0,2013-03-11 10:15:00
4:35 AM,32.0,10.4,41,30.11,10.0,WNW,3.5,-,N/A,,Clear,290,2013-03-11 10:35:00
4:55 AM,32.0,12.2,44,30.11,10.0,WNW,10.4,-,N/A,,Clear,290,2013-03-11 10:55:00
5:15 AM,32.0,14.0,48,30.11,10.0,West,12.7,-,N/A,,Clear,280,2013-03-11 11:15:00
5:35 AM,35.6,15.8,44,30.11,10.0,West,13.8,-,N/A,,Clear,280,2013-03-11 11:35:00
5:55 AM,37.4,15.8,41,30.11,10.0,WNW,11.5,-,N/A,,Clear,290,2013-03-11 11:55:00
6:15 AM,37.4,14.0,38,30.11,10.0,West,11.5,-,N/A,,Clear,280,2013-03-11 12:15:00
6:35 AM,37.4,15.8,41,30.11,10.0,West,6.9,-,N/A,,Clear,270,2013-03-11 12:35:00
6:55 AM,32.0,14.0,48,30.11,10.0,WSW,6.9,-,N/A,,Clear,250,2013-03-11 12:55:00
7:15 AM,32.0,14.0,48,30.12,10.0,WSW,4.6,-,N/A,,Clear,240,2013-03-11 13:15:00
7:35 AM,32.0,12.2,44,30.12,10.0,WSW,8.1,-,N/A,,Clear,250,2013-03-11 13:35:00
7:55 AM,35.6,14.0,41,30.12,10.0,West,6.9,-,N/A,,Clear,270,2013-03-11 13:55:00
8:15 AM,41.0,15.8,36,30.12,10.0,West,4.6,-,N/A,,Clear,280,2013-03-11 14:15:00
8:35 AM,44.6,15.8,31,30.12,10.0,WSW,3.5,-,N/A,,Clear,240,2013-03-11 14:35:00
8:55 AM,46.4,17.6,32,30.12,10.0,SSW,4.6,-,N/A,,Clear,200,2013-03-11 14:55:00
9:15 AM,46.4,17.6,32,30.12,10.0,SSW,5.8,-,N/A,,Clear,210,2013-03-11 15:15:00
9:35 AM,48.2,17.6,30,30.12,10.0,South,4.6,-,N/A,,Clear,190,2013-03-11 15:35:00
9:55 AM,50.0,17.6,28,30.12,10.0,SSE,5.8,-,N/A,,Clear,160,2013-03-11 15:55:00
10:15 AM,50.0,17.6,28,30.12,10.0,SE,5.8,-,N/A,,Clear,130,2013-03-11 16:15:00
10:35 AM,53.6,19.4,26,30.11,10.0,ESE,5.8,-,N/A,,Clear,120,2013-03-11 16:35:00
10:55 AM,55.4,19.4,25,30.10,10.0,SE,8.1,-,N/A,,Clear,130,2013-03-11 16:55:00
11:15 AM,57.2,19.4,23,30.10,10.0,ESE,8.1,-,N/A,,Clear,110,2013-03-11 17:15:00
11:35 AM,59.0,19.4,22,30.09,10.0,ENE,6.9,-,N/A,,Clear,60,2013-03-11 17:35:00
11:55 AM,62.6,14.0,15,30.08,10.0,South,4.6,-,N/A,,Clear,170,2013-03-11 17:55:00
12:15 PM,66.2,14.0,13,30.07,10.0,WSW,12.7,20.7,N/A,,Clear,250,2013-03-11 18:15:00
12:35 PM,66.2,14.0,13,30.05,10.0,WSW,11.5,17.3,N/A,,Clear,240,2013-03-11 18:35:00
12:55 PM,66.2,14.0,13,30.04,10.0,SSW,16.1,21.9,N/A,,Clear,200,2013-03-11 18:55:00
1:15 PM,66.2,12.2,12,30.03,10.0,SW,9.2,20.7,N/A,,Clear,220,2013-03-11 19:15:00
1:35 PM,66.2,10.4,11,30.02,10.0,WSW,6.9,-,N/A,,Clear,250,2013-03-11 19:35:00
1:55 PM,68.0,8.6,10,30.01,10.0,SW,8.1,17.3,N/A,,Clear,230,2013-03-11 19:55:00
2:15 PM,68.0,10.4,11,29.99,10.0,SW,15.0,20.7,N/A,,Clear,220,2013-03-11 20:15:00
2:35 PM,68.0,12.2,12,29.98,10.0,West,6.9,19.6,N/A,,Clear,260,2013-03-11 20:35:00
2:55 PM,68.0,14.0,12,29.97,10.0,WSW,11.5,18.4,N/A,,Clear,240,2013-03-11 20:55:00
3:15 PM,69.8,14.0,12,29.96,10.0,SSW,4.6,-,N/A,,Clear,210,2013-03-11 21:15:00
3:35 PM,69.8,14.0,12,29.96,10.0,SW,11.5,18.4,N/A,,Clear,230,2013-03-11 21:35:00
3:55 PM,71.6,14.0,11,29.95,10.0,WSW,8.1,-,N/A,,Clear,250,2013-03-11 21:55:00
4:15 PM,71.6,14.0,11,29.94,10.0,SW,9.2,-,N/A,,Clear,230,2013-03-11 22:15:00
4:35 PM,71.6,12.2,10,29.94,10.0,South,6.9,-,N/A,,Clear,180,2013-03-11 22:35:00
4:55 PM,71.6,12.2,10,29.93,10.0,SW,6.9,-,N/A,,Clear,230,2013-03-11 22:55:00
5:15 PM,71.6,12.2,10,29.93,10.0,East,3.5,-,N/A,,Clear,100,2013-03-11 23:15:00
5:35 PM,71.6,12.2,10,29.92,10.0,NW,3.5,-,N/A,,Clear,320,2013-03-11 23:35:00
5:55 PM,71.6,14.0,11,29.91,10.0,SW,24.2,27.6,N/A,,Clear,220,2013-03-11 23:55:00
6:15 PM,68.0,14.0,12,29.91,10.0,SSW,20.7,26.5,N/A,,Clear,210,2013-03-12 00:15:00
6:35 PM,68.0,12.2,12,29.92,10.0,SW,21.9,25.3,N/A,,Clear,230,2013-03-12 00:35:00
6:55 PM,66.2,12.2,12,29.93,10.0,WSW,19.6,25.3,N/A,,Clear,240,2013-03-12 00:55:00
7:15 PM,64.4,12.2,13,29.93,10.0,WSW,16.1,23.0,N/A,,Clear,240,2013-03-12 01:15:00
7:35 PM,62.6,12.2,14,29.94,10.0,WSW,15.0,-,N/A,,Clear,240,2013-03-12 01:35:00
7:55 PM,60.8,12.2,15,29.95,10.0,SW,15.0,-,N/A,,Clear,230,2013-03-12 01:55:00
8:35 PM,59.0,12.2,16,29.96,10.0,WSW,16.1,-,N/A,,Clear,240,2013-03-12 02:35:00
8:55 PM,59.0,12.2,16,29.96,10.0,West,16.1,-,N/A,,Clear,260,2013-03-12 02:55:00
9:15 PM,57.2,12.2,17,29.97,10.0,West,16.1,-,N/A,,Clear,260,2013-03-12 03:15:00
9:35 PM,57.2,12.2,17,29.97,10.0,West,16.1,-,N/A,,Clear,260,2013-03-12 03:35:00
9:55 PM,55.4,12.2,18,29.98,10.0,West,15.0,-,N/A,,Clear,270,2013-03-12 03:55:00
10:15 PM,53.6,12.2,19,29.99,10.0,West,12.7,-,N/A,,Clear,270,2013-03-12 04:15:00
10:35 PM,53.6,10.4,18,29.99,10.0,West,12.7,-,N/A,,Clear,260,2013-03-12 04:35:00
10:55 PM,51.8,10.4,19,29.99,10.0,West,13.8,-,N/A,,Clear,260,2013-03-12 04:55:00
11:15 PM,51.8,10.4,19,29.99,10.0,West,12.7,-,N/A,,Clear,260,2013-03-12 05:15:00
11:35 PM,53.6,12.2,19,30.00,10.0,West,15.0,-,N/A,,Clear,260,2013-03-12 05:35:00
11:55 PM,53.6,12.2,19,29.99,10.0,WSW,11.5,-,N/A,,Clear,250,2013-03-12 05:55:00